Time;durP1;ratioP1;P1;durP2;ratioP2;P2;SDS_P1;SDS_P2;PMS_P1;PMS_P2;Temp;Humidity;BMP_temperature;BMP_pressure;BME280_temperature;BME280_humidity;BME280_pressure;Samples;Min_cycle;Max_cycle;Signal;HPM_P1;HPM_P2
2023/10/11 00:00:33;;;;;;;0.43;0.43;;;;;;;18.90;70.79;101467.22;5069697;28;20025;-79
2023/10/11 00:05:39;;;;;;;1.27;1.27;;;;;;;18.73;71.21;101470.69;5069847;28;20143;-80
2023/10/11 00:08:08;;;;;;;1.52;1.02;;;;;;;18.86;70.92;101468.31;5064736;28;20029;-80
2023/10/11 00:10:43;;;;;;;1.10;1.00;;;;;;;18.87;71.07;101462.00;5055821;28;20036;-80
2023/10/11 00:13:11;;;;;;;0.32;0.32;;;;;;;18.84;71.26;101462.13;5058261;28;20040;-81
2023/10/11 00:15:38;;;;;;;0.10;0.10;;;;;;;18.83;70.99;101466.66;5054834;28;20521;-81
2023/10/11 00:18:04;;;;;;;0.10;0.10;;;;;;;18.74;71.33;101458.97;5056261;28;20096;-82
2023/10/11 00:20:47;;;;;;;7.38;2.30;;;;;;;18.85;70.92;101458.50;5062769;28;20090;-81
2023/10/11 00:23:16;;;;;;;0.73;0.73;;;;;;;18.80;71.34;101472.13;5054244;28;20402;-81
2023/10/11 00:25:44;;;;;;;0.22;0.22;;;;;;;18.83;71.07;101468.44;5059717;28;20390;-81
2023/10/11 00:28:11;;;;;;;1.75;0.63;;;;;;;18.83;71.01;101463.06;5053336;28;20103;-80
2023/10/11 00:30:38;;;;;;;1.25;1.02;;;;;;;18.85;70.90;101466.56;5051469;28;20036;-81
2023/10/11 00:33:07;;;;;;;1.27;1.25;;;;;;;18.81;71.17;101464.97;5052666;28;20036;-80
2023/10/11 00:35:41;;;;;;;0.98;0.95;;;;;;;18.79;71.16;101466.84;5062190;28;20036;-80
2023/10/11 00:38:11;;;;;;;0.75;0.75;;;;;;;18.74;71.42;101470.63;5061269;28;20487;-80
2023/10/11 00:40:37;;;;;;;0.38;0.38;;;;;;;18.73;71.56;101460.81;5053280;28;20033;-80
2023/10/11 00:43:06;;;;;;;1.40;1.38;;;;;;;18.82;71.08;101458.66;5057455;28;20029;-81
2023/10/11 00:45:36;;;;;;;1.05;1.00;;;;;;;18.76;71.30;101460.66;5060348;28;20087;-81
2023/10/11 00:48:10;;;;;;;0.10;0.10;;;;;;;18.73;71.27;101458.13;5058234;28;20033;-81
2023/10/11 00:50:37;;;;;;;2.10;1.75;;;;;;;18.81;70.92;101446.19;5060437;28;20130;-81
2023/10/11 00:53:04;;;;;;;1.85;0.98;;;;;;;18.76;71.01;101443.69;5062235;28;20035;-80
2023/10/11 00:55:31;;;;;;;0.20;0.20;;;;;;;18.73;71.13;101450.06;5055861;28;20064;-80
2023/10/11 00:57:57;;;;;;;3.90;1.55;;;;;;;18.78;70.97;101440.94;5058975;28;20036;-80
2023/10/11 01:00:24;;;;;;;0.55;0.50;;;;;;;18.63;71.56;101448.75;5062174;28;20520;-80
2023/10/11 01:02:52;;;;;;;0.40;0.40;;;;;;;18.78;71.02;101446.31;5056964;28;20041;-80
2023/10/11 01:05:20;;;;;;;0.10;0.10;;;;;;;18.72;71.32;101447.47;5058202;28;20025;-80
2023/10/11 01:07:49;;;;;;;0.63;0.63;;;;;;;18.68;71.32;101436.00;5066080;28;20104;-79
2023/10/11 01:10:17;;;;;;;0.20;0.20;;;;;;;18.67;71.02;101444.97;5066858;28;20021;-79
2023/10/11 01:12:43;;;;;;;1.48;1.42;;;;;;;18.65;71.25;101441.47;5064840;28;20036;-80
2023/10/11 01:15:11;;;;;;;0.45;0.45;;;;;;;18.61;71.11;101439.03;5063534;28;20041;-80
2023/10/11 01:17:39;;;;;;;1.10;1.08;;;;;;;18.67;71.03;101436.94;5044339;28;20032;-80
2023/10/11 01:20:13;;;;;;;0.65;0.65;;;;;;;18.58;71.43;101430.16;5046834;28;20033;-81
2023/10/11 01:22:46;;;;;;;0.43;0.43;;;;;;;18.57;71.31;101439.16;5041963;28;20033;-81
2023/10/11 01:25:13;;;;;;;0.22;0.22;;;;;;;18.54;71.67;101435.72;5042938;28;20021;-80
2023/10/11 01:27:40;;;;;;;1.60;1.50;;;;;;;18.53;71.40;101429.50;5039695;28;20041;-80
2023/10/11 01:30:09;;;;;;;2.95;2.70;;;;;;;18.41;72.18;101425.53;5042514;28;20038;-80
2023/10/11 01:32:37;;;;;;;0.75;0.75;;;;;;;18.54;71.53;101427.66;5039809;28;20021;-80
2023/10/11 01:35:05;;;;;;;0.20;0.20;;;;;;;18.58;71.19;101419.44;5041393;28;20026;-80
2023/10/11 01:37:41;;;;;;;0.30;0.30;;;;;;;18.52;71.58;101421.53;5052741;28;20503;-80
2023/10/11 01:40:09;;;;;;;0.35;0.35;;;;;;;18.45;71.58;101417.34;5050174;28;20085;-80
2023/10/11 01:42:36;;;;;;;2.30;2.17;;;;;;;18.50;71.48;101409.97;5046226;28;20033;-81
2023/10/11 01:45:07;;;;;;;1.27;1.17;;;;;;;18.50;71.58;101416.19;5048291;28;20029;-81
2023/10/11 01:47:34;;;;;;;1.25;1.25;;;;;;;18.46;71.29;101408.38;5047932;28;20047;-80
2023/10/11 01:50:00;;;;;;;0.20;0.20;;;;;;;18.36;71.70;101406.06;5049871;28;20025;-80
2023/10/11 01:52:26;;;;;;;1.25;1.25;;;;;;;18.42;71.70;101416.53;5047696;28;20064;-81
2023/10/11 01:54:55;;;;;;;2.22;0.55;;;;;;;18.30;72.23;101398.28;5053545;28;20025;-79
2023/10/11 01:57:25;;;;;;;5.70;1.80;;;;;;;18.41;71.66;101385.28;5056103;28;20118;-81
2023/10/11 01:59:52;;;;;;;0.98;0.98;;;;;;;18.47;71.32;101394.88;5042572;28;20104;-80
2023/10/11 02:02:24;;;;;;;0.73;0.73;;;;;;;18.29;71.63;101396.53;5044727;28;20097;-80
2023/10/11 02:04:50;;;;;;;;;;;;;;;18.46;71.17;101385.09;5055083;28;20035;-80
2023/10/11 02:07:16;;;;;;;0.45;0.45;;;;;;;18.33;71.65;101387.44;5050274;28;19917;-80
2023/10/11 02:09:43;;;;;;;0.88;0.88;;;;;;;18.35;71.26;101376.63;5046144;28;20057;-80
2023/10/11 02:12:10;;;;;;;0.40;0.40;;;;;;;18.32;71.39;101364.25;5038926;28;20025;-79
2023/10/11 02:14:38;;;;;;;1.00;1.00;;;;;;;18.38;70.95;101373.81;5036989;28;20075;-80
2023/10/11 02:17:05;;;;;;;0.68;0.68;;;;;;;18.30;71.24;101366.09;5039759;28;20026;-80
2023/10/11 02:19:32;;;;;;;0.65;0.63;;;;;;;18.32;70.94;101364.25;5040945;28;20029;-81
2023/10/11 02:22:00;;;;;;;0.80;0.80;;;;;;;18.27;70.91;101369.81;5038760;28;20565;-81
2023/10/11 02:24:26;;;;;;;0.75;0.65;;;;;;;18.15;71.32;101374.84;5045893;28;20701;-81
2023/10/11 02:26:54;;;;;;;2.40;2.20;;;;;;;18.27;70.90;101371.63;5048288;28;20491;-80
2023/10/11 02:29:22;;;;;;;0.73;0.73;;;;;;;18.11;71.26;101385.69;5040046;28;20057;-81
2023/10/11 02:31:50;;;;;;;0.10;0.10;;;;;;;18.19;71.07;101388.03;5030572;28;20491;-81
2023/10/11 02:34:17;;;;;;;0.40;0.40;;;;;;;18.21;70.71;101385.31;5039022;28;20514;-82
2023/10/11 02:36:44;;;;;;;0.17;0.17;;;;;;;18.20;70.58;101387.09;5040223;28;20037;-81
2023/10/11 02:39:43;;;;;;;1.13;0.68;;;;;;;18.19;70.46;101379.97;5032809;28;20212;-81
2023/10/11 02:41:58;;;;;;;0.10;0.10;;;;;;;18.08;70.70;101377.78;5040169;28;20040;-79
2023/10/11 02:44:25;;;;;;;0.57;0.57;;;;;;;18.10;70.70;101370.53;5041408;28;20096;-80
2023/10/11 02:46:52;;;;;;;1.55;1.33;;;;;;;18.08;70.57;101383.16;5041050;28;20053;-79
2023/10/11 02:49:19;;;;;;;0.85;0.85;;;;;;;18.09;70.47;101374.16;5042570;28;20037;-78
2023/10/11 02:51:56;;;;;;;0.30;0.30;;;;;;;18.07;70.45;101369.81;5036074;28;20518;-76
2023/10/11 02:54:33;;;;;;;3.83;1.85;;;;;;;18.02;70.54;101366.44;5041118;28;20108;-79
2023/10/11 02:57:00;;;;;;;1.77;0.75;;;;;;;17.98;70.59;101363.03;5036781;28;20035;-77
2023/10/11 02:59:26;;;;;;;0.20;0.20;;;;;;;18.04;70.29;101365.44;5031174;28;20053;-78
2023/10/11 03:02:01;;;;;;;0.13;0.13;;;;;;;17.98;70.46;101365.72;5036745;28;20048;-78
2023/10/11 03:04:39;;;;;;;0.17;0.17;;;;;;;17.98;70.71;101370.19;5047766;28;20025;-82
2023/10/11 03:07:12;;;;;;;0.43;0.43;;;;;;;17.91;70.66;101364.19;5036349;28;20398;-78
2023/10/11 03:09:40;;;;;;;0.10;0.10;;;;;;;17.95;70.16;101361.34;5039820;28;20033;-77
2023/10/11 03:12:10;;;;;;;0.32;0.28;;;;;;;17.85;70.61;101359.09;5039701;28;20026;-80
2023/10/11 03:14:41;;;;;;;0.10;0.10;;;;;;;17.74;70.87;101355.03;5047522;28;20032;-80
2023/10/11 03:17:13;;;;;;;1.95;1.85;;;;;;;17.77;70.93;101357.59;5046539;28;20128;-76
2023/10/11 03:19:42;;;;;;;1.70;1.55;;;;;;;17.64;71.03;101367.09;5037727;28;20119;-79
2023/10/11 03:22:09;;;;;;;0.73;0.73;;;;;;;17.69;71.16;101365.06;5029807;28;20056;-80
2023/10/11 03:24:40;;;;;;;0.25;0.25;;;;;;;17.73;71.20;101355.09;5039672;28;20029;-80
2023/10/11 03:27:10;;;;;;;0.20;0.20;;;;;;;17.73;70.88;101356.00;5036799;28;20053;-80
2023/10/11 03:29:36;;;;;;;1.10;1.10;;;;;;;17.79;70.59;101355.75;5044278;28;20109;-79
2023/10/11 03:32:04;;;;;;;2.30;0.77;;;;;;;17.78;70.50;101345.94;5037850;28;20029;-76
2023/10/11 03:34:30;;;;;;;1.60;1.20;;;;;;;17.76;70.64;101342.47;5039824;28;20103;-77
2023/10/11 03:36:59;;;;;;;0.32;0.32;;;;;;;17.78;70.50;101340.59;5053696;28;20391;-79
2023/10/11 03:39:44;;;;;;;0.15;0.15;;;;;;;17.77;70.62;101341.53;5051396;28;20083;-81
2023/10/11 03:44:48;;;;;;;0.10;0.10;;;;;;;17.71;70.82;101341.78;5089611;27;20389;-79
2023/10/11 03:47:15;;;;;;;0.10;0.10;;;;;;;17.74;70.78;101336.28;5070090;28;20402;-80
2023/10/11 03:52:22;;;;;;;4.57;1.90;;;;;;;17.63;71.32;101327.81;5060325;28;20405;-81
2023/10/11 03:54:54;;;;;;;0.63;0.63;;;;;;;17.60;71.45;101333.31;5054474;28;20449;-78
2023/10/11 03:57:20;;;;;;;0.20;0.20;;;;;;;17.66;71.21;101334.84;5061622;28;20090;-78
2023/10/11 03:59:48;;;;;;;0.10;0.10;;;;;;;17.49;71.99;101335.56;5057132;28;20044;-81
2023/10/11 04:02:17;;;;;;;0.30;0.30;;;;;;;17.55;71.91;101329.97;5065260;28;20502;-80
2023/10/11 04:04:48;;;;;;;0.10;0.10;;;;;;;17.68;71.46;101323.13;5059064;28;20112;-82
2023/10/11 04:07:15;;;;;;;1.13;1.10;;;;;;;17.67;71.49;101326.78;5057959;28;20025;-79
2023/10/11 04:09:44;;;;;;;0.13;0.13;;;;;;;17.76;71.40;101331.72;5061129;28;20028;-82
2023/10/11 04:12:11;;;;;;;0.52;0.47;;;;;;;17.76;71.25;101339.78;5058784;28;20037;-81
2023/10/11 04:14:39;;;;;;;0.15;0.15;;;;;;;17.82;71.64;101335.97;5069732;28;20460;-82
2023/10/11 04:17:10;;;;;;;2.05;1.15;;;;;;;17.85;71.23;101343.00;5056163;28;20025;-82
2023/10/11 04:19:40;;;;;;;1.10;1.10;;;;;;;17.85;71.28;101343.88;5064980;28;20029;-82
2023/10/11 04:22:12;;;;;;;2.47;0.93;;;;;;;17.82;71.35;101343.13;5061995;28;20024;-82
2023/10/11 04:24:39;;;;;;;0.20;0.20;;;;;;;17.98;71.07;101338.91;5052508;28;20033;-86
2023/10/11 04:29:59;;;;;;;0.20;0.20;;;;;;;17.89;71.88;101329.38;5092743;27;20933;-80
2023/10/11 04:32:41;;;;;;;0.20;0.20;;;;;;;17.97;71.42;101337.16;5085092;28;20406;-80
2023/10/11 04:35:19;;;;;;;0.52;0.52;;;;;;;18.02;71.39;101324.41;5069665;28;20025;-80
2023/10/11 04:37:52;;;;;;;1.33;1.33;;;;;;;17.91;71.97;101324.00;5063886;28;20037;-79
2023/10/11 04:43:25;;;;;;;0.10;0.10;;;;;;;18.08;71.24;101342.03;5114317;27;1169768;-79
2023/10/11 04:45:54;;;;;;;;;;;;;;;18.00;71.71;101342.38;5118783;28;20020;-78
2023/10/11 04:48:30;;;;;;;0.95;0.95;;;;;;;18.05;71.80;101343.03;5110826;28;19911;-80
2023/10/11 04:51:08;;;;;;;0.28;0.28;;;;;;;18.06;71.72;101347.47;5109811;28;20035;-80
2023/10/11 04:53:46;;;;;;;0.10;0.10;;;;;;;17.97;71.85;101353.25;5110124;28;20056;-81
2023/10/11 04:59:06;;;;;;;0.17;0.17;;;;;;;18.09;71.66;101347.34;5107715;28;20032;-80
2023/10/11 05:01:58;;;;;;;1.77;1.67;;;;;;;18.02;72.00;101337.81;5110806;28;20058;-79
2023/10/11 05:04:30;;;;;;;3.28;1.77;;;;;;;18.06;72.09;101341.25;5109664;28;20036;-80
2023/10/11 05:06:57;;;;;;;0.10;0.10;;;;;;;18.09;71.89;101327.69;5105427;28;20024;-80
2023/10/11 05:09:38;;;;;;;0.28;0.28;;;;;;;18.11;71.82;101334.72;5110913;28;20067;-77
2023/10/11 05:22:55;;;;;;;0.57;0.57;;;;;;;18.18;71.88;101339.81;5118976;27;20401;-81
2023/10/11 05:26:36;;;;;;;0.50;0.50;;;;;;;18.11;72.07;101329.38;5109924;28;20056;-81
2023/10/11 05:28:26;;;;;;;0.20;0.20;;;;;;;18.23;71.99;101337.81;5115530;27;20047;-82
2023/10/11 05:31:34;;;;;;;0.10;0.10;;;;;;;18.20;71.88;101316.50;5093921;28;20025;-81
2023/10/11 05:53:01;;;;;;;0.65;0.65;;;;;;;18.23;72.01;101319.03;5093176;28;20129;-80
2023/10/11 05:55:28;;;;;;;0.63;0.63;;;;;;;18.25;71.81;101320.72;5092390;28;20035;-80
2023/10/11 05:57:54;;;;;;;0.57;0.57;;;;;;;18.21;71.96;101323.63;5091908;28;20034;-79
2023/10/11 06:00:25;;;;;;;0.98;0.65;;;;;;;18.28;72.16;101319.72;5102002;28;20067;-80
2023/10/11 06:02:52;;;;;;;0.28;0.28;;;;;;;18.25;72.20;101327.91;5093547;28;20028;-81
2023/10/11 06:05:23;;;;;;;2.65;1.88;;;;;;;18.20;72.25;101333.44;5091139;28;20484;-81
2023/10/11 06:08:00;;;;;;;0.73;0.73;;;;;;;18.30;72.24;101339.28;5082506;28;20399;-80
2023/10/11 06:10:32;;;;;;;0.73;0.63;;;;;;;18.31;72.10;101351.75;5093460;28;20031;-82
2023/10/11 06:12:58;;;;;;;0.83;0.83;;;;;;;18.44;71.72;101346.72;5091966;28;20036;-82
2023/10/11 06:15:25;;;;;;;3.47;1.65;;;;;;;18.30;72.19;101355.38;5084838;28;20381;-83
2023/10/11 06:17:54;;;;;;;0.90;0.90;;;;;;;18.37;72.11;101353.31;5096103;28;20043;-84
2023/10/11 06:20:28;;;;;;;15.95;2.28;;;;;;;18.43;71.99;101356.59;5096245;28;20020;-83
2023/10/11 06:22:54;;;;;;;0.28;0.28;;;;;;;18.43;72.11;101359.25;5094379;28;20052;-83
2023/10/11 06:25:30;;;;;;;2.22;2.08;;;;;;;18.47;72.18;101362.69;5103438;28;20059;-82
2023/10/11 06:30:35;;;;;;;0.57;0.57;;;;;;;18.56;71.96;101366.75;5109528;27;20395;-78
2023/10/11 06:33:05;;;;;;;0.15;0.15;;;;;;;18.62;71.95;101363.81;5096456;28;20028;-79
2023/10/11 06:35:36;;;;;;;0.47;0.47;;;;;;;18.70;71.86;101364.31;5097891;28;20020;-80
2023/10/11 06:38:03;;;;;;;0.10;0.10;;;;;;;18.71;71.83;101363.38;5106283;28;20020;-79
2023/10/11 06:43:16;;;;;;;0.75;0.75;;;;;;;18.75;71.95;101356.03;5094599;28;20053;-78
2023/10/11 06:45:43;;;;;;;1.85;0.90;;;;;;;18.81;71.92;101344.16;5087096;28;20024;-79
2023/10/11 06:48:13;;;;;;;2.25;2.08;;;;;;;18.75;72.36;101342.63;5102757;28;20028;-78
2023/10/11 06:50:39;;;;;;;0.30;0.30;;;;;;;18.80;72.29;101358.53;5095883;28;20056;-79
2023/10/11 06:53:08;;;;;;;0.22;0.22;;;;;;;18.80;72.14;101339.72;5091240;28;20108;-77
2023/10/11 06:55:36;;;;;;;0.52;0.50;;;;;;;18.79;72.09;101354.09;5086091;28;20027;-80
2023/10/11 06:58:09;;;;;;;1.30;0.55;;;;;;;18.91;72.01;101350.88;5094386;28;20111;-80
2023/10/11 07:00:37;;;;;;;0.22;0.22;;;;;;;18.97;71.78;101350.59;5088819;28;20053;-78
2023/10/11 07:03:09;;;;;;;3.25;2.95;;;;;;;19.05;71.65;101343.03;5081200;27;20118;-78
2023/10/11 07:05:40;;;;;;;0.30;0.30;;;;;;;19.03;71.79;101361.03;5087665;28;20028;-80
2023/10/11 07:08:08;;;;;;;0.65;0.65;;;;;;;19.04;71.63;101356.53;5079662;28;20093;-80
2023/10/11 07:10:35;;;;;;;1.65;1.45;;;;;;;18.98;71.80;101357.69;5074158;28;20079;-78
2023/10/11 07:13:04;;;;;;;9.00;4.78;;;;;;;18.90;72.08;101349.09;5074076;28;20021;-78
2023/10/11 07:15:38;;;;;;;0.90;0.90;;;;;;;18.89;72.49;101358.97;5072096;28;20025;-80
2023/10/11 07:18:08;;;;;;;2.70;1.85;;;;;;;19.00;72.04;101371.03;5077118;28;20021;-78
2023/10/11 07:20:58;;;;;;;2.13;2.03;;;;;;;19.00;71.93;101366.53;5085105;28;20036;-81
2023/10/11 07:23:22;;;;;;;1.23;1.23;;;;;;;19.00;71.98;101377.28;5092801;28;20074;-79
2023/10/11 07:26:11;;;;;;;1.70;0.95;;;;;;;19.07;72.14;101378.72;5091839;28;20556;-80
2023/10/11 07:28:37;;;;;;;0.43;0.43;;;;;;;19.04;72.20;101383.38;5090328;28;20028;-80
2023/10/11 07:31:05;;;;;;;0.50;0.50;;;;;;;19.08;72.03;101379.63;5088051;28;20028;-80
2023/10/11 07:33:36;;;;;;;0.43;0.43;;;;;;;19.16;72.03;101387.31;5081471;28;20039;-79
2023/10/11 07:36:03;;;;;;;0.25;0.25;;;;;;;19.13;72.17;101388.34;5087739;28;20486;-81
2023/10/11 07:38:34;;;;;;;0.40;0.40;;;;;;;19.04;72.53;101394.13;5083645;28;20032;-80
2023/10/11 07:41:05;;;;;;;0.57;0.57;;;;;;;19.10;72.64;101391.16;5068017;28;20109;-80
2023/10/11 07:43:33;;;;;;;1.40;1.35;;;;;;;19.22;72.13;101389.72;5060936;28;20039;-79
2023/10/11 07:46:02;;;;;;;0.32;0.32;;;;;;;19.13;72.48;101382.97;5059284;28;20053;-79
2023/10/11 07:48:32;;;;;;;7.22;3.60;;;;;;;19.14;72.11;101381.13;5058351;28;20025;-79
2023/10/11 07:51:09;;;;;;;2.47;2.20;;;;;;;19.29;71.95;101380.41;5065993;28;20037;-80
2023/10/11 07:53:37;;;;;;;0.82;0.82;;;;;;;19.35;72.18;101385.50;5058694;28;20081;-78
2023/10/11 07:56:03;;;;;;;0.35;0.35;;;;;;;19.38;71.91;101374.59;5060656;28;20029;-80
2023/10/11 07:58:32;;;;;;;0.68;0.68;;;;;;;19.43;71.78;101381.53;5060794;28;20025;-81
2023/10/11 08:01:04;;;;;;;0.15;0.15;;;;;;;19.47;71.88;101384.00;5072527;28;20024;-79
2023/10/11 08:03:34;;;;;;;0.70;0.68;;;;;;;19.49;71.85;101379.44;5087101;28;20032;-80
2023/10/11 08:06:08;;;;;;;0.40;0.40;;;;;;;19.49;72.02;101384.81;5088220;28;20095;-81
2023/10/11 08:08:37;;;;;;;0.22;0.22;;;;;;;19.57;71.53;101392.50;5080119;28;20649;-80
2023/10/11 08:11:18;;;;;;;0.20;0.20;;;;;;;19.50;72.14;101380.31;5072963;28;20091;-78
2023/10/11 08:13:48;;;;;;;0.83;0.83;;;;;;;19.53;72.10;101396.28;5067751;28;20033;-79
2023/10/11 08:16:18;;;;;;;1.65;1.13;;;;;;;19.63;71.85;101392.19;5080705;28;20027;-80
2023/10/11 08:18:48;;;;;;;0.63;0.63;;;;;;;19.66;71.76;101392.03;5076769;28;20024;-78
2023/10/11 08:21:16;;;;;;;0.73;0.73;;;;;;;19.45;72.94;101399.34;5078691;28;20082;-83
2023/10/11 08:23:43;;;;;;;1.42;1.35;;;;;;;19.64;72.32;101402.00;5081075;28;20032;-79
2023/10/11 08:26:14;;;;;;;0.93;0.73;;;;;;;19.66;72.46;101392.03;5079980;28;20025;-81
2023/10/11 08:28:47;;;;;;;0.20;0.20;;;;;;;19.63;72.82;101402.09;5071807;28;20028;-79
2023/10/11 08:31:21;;;;;;;0.73;0.73;;;;;;;19.72;72.26;101402.47;5077298;28;20530;-80
2023/10/11 08:33:49;;;;;;;1.42;1.33;;;;;;;19.69;72.98;101401.78;5074027;28;20101;-79
2023/10/11 08:36:18;;;;;;;1.00;1.00;;;;;;;19.68;73.13;101397.34;5080146;28;20024;-80
2023/10/11 08:38:44;;;;;;;0.40;0.40;;;;;;;19.72;73.06;101394.41;5075123;28;20479;-79
2023/10/11 08:41:14;;;;;;;0.93;0.57;;;;;;;19.71;73.18;101395.38;5078099;28;20033;-80
2023/10/11 08:43:43;;;;;;;1.55;1.45;;;;;;;19.72;72.72;101410.53;5075141;28;20036;-80
2023/10/11 08:46:12;;;;;;;1.95;1.77;;;;;;;19.67;73.22;101412.59;5075244;28;20058;-79
2023/10/11 08:48:38;;;;;;;1.20;0.65;;;;;;;19.55;73.85;101405.13;5084971;28;20024;-80
2023/10/11 08:51:10;;;;;;;0.10;0.10;;;;;;;19.70;72.97;101393.66;5078277;28;20044;-81
2023/10/11 08:53:47;;;;;;;0.30;0.30;;;;;;;19.76;72.50;101407.72;5073062;28;20055;-81
2023/10/11 08:56:15;;;;;;;2.47;1.80;;;;;;;19.72;72.34;101394.41;5079569;28;20028;-81
2023/10/11 08:58:41;;;;;;;0.10;0.10;;;;;;;19.92;71.65;101386.34;5072552;28;20108;-81
2023/10/11 09:01:07;;;;;;;0.30;0.30;;;;;;;19.87;71.58;101394.63;5073211;28;20029;-79
2023/10/11 09:03:40;;;;;;;0.63;0.63;;;;;;;19.78;71.08;101395.94;5083373;28;20028;-82
2023/10/11 09:06:22;;;;;;;;;;;;;;;19.99;70.78;101402.09;5066867;28;20048;-81
2023/10/11 09:08:48;;;;;;;0.20;0.20;;;;;;;20.06;70.43;101404.47;5070309;28;19935;-81
2023/10/11 09:11:47;;;;;;;2.03;1.65;;;;;;;20.09;70.12;101399.81;5075190;28;20114;-82
2023/10/11 09:16:47;;;;;;;0.68;0.68;;;;;;;20.18;69.60;101406.53;5081125;27;1234868;-81
2023/10/11 09:19:19;;;;;;;2.38;1.27;;;;;;;20.14;69.55;101408.50;5094695;28;20052;-81
2023/10/11 09:24:41;;;;;;;0.60;0.60;;;;;;;20.30;68.74;101413.06;5115969;27;20380;-81
2023/10/11 09:29:54;;;;;;;0.68;0.68;;;;;;;20.33;68.69;101418.31;5095707;28;20377;-82
2023/10/11 09:32:32;;;;;;;4.28;2.90;;;;;;;20.40;68.47;101424.25;5087346;28;20032;-80
2023/10/11 09:34:58;;;;;;;6.32;1.08;;;;;;;20.54;67.86;101427.09;5079833;28;20032;-81
2023/10/11 09:37:25;;;;;;;0.10;0.10;;;;;;;20.63;67.67;101429.28;5075915;28;20550;-81
2023/10/11 09:39:51;;;;;;;0.28;0.28;;;;;;;20.50;67.97;101437.16;5075046;28;20035;-81
2023/10/11 09:42:22;;;;;;;0.65;0.65;;;;;;;20.57;67.57;101442.22;5071051;28;20087;-81
2023/10/11 09:44:57;;;;;;;7.22;1.80;;;;;;;20.63;67.77;101441.88;5071331;28;20060;-81
2023/10/11 09:47:24;;;;;;;0.20;0.20;;;;;;;20.65;67.58;101448.94;5070281;28;20064;-80
2023/10/11 09:49:53;;;;;;;7.32;0.85;;;;;;;20.61;67.87;101427.63;5070173;28;20033;-82
2023/10/11 09:52:23;;;;;;;0.20;0.20;;;;;;;20.76;67.53;101425.97;5072076;28;20033;-84
2023/10/11 09:54:51;;;;;;;1.25;1.25;;;;;;;20.69;67.31;101420.88;5069604;28;20052;-85
2023/10/11 09:57:50;;;;;;;0.10;0.10;;;;;;;20.82;66.82;101428.34;5069362;28;20043;-84
2023/10/11 10:02:58;;;;;;;0.22;0.22;;;;;;;20.89;66.83;101421.66;5112865;27;20387;-84
2023/10/11 10:05:30;;;;;;;1.08;1.00;;;;;;;20.95;66.57;101432.09;5109826;28;20388;-83
2023/10/11 10:08:14;;;;;;;10.80;1.52;;;;;;;21.13;66.04;101435.63;5111337;28;20065;-81
2023/10/11 10:10:56;;;;;;;0.65;0.65;;;;;;;21.13;66.00;101429.34;5093349;28;20032;-83
2023/10/11 10:13:24;;;;;;;0.10;0.10;;;;;;;21.24;65.30;101426.06;5092540;28;20028;-84
2023/10/11 10:15:53;;;;;;;0.32;0.32;;;;;;;21.24;65.42;101420.69;5092334;28;20060;-84
2023/10/11 10:18:22;;;;;;;0.30;0.30;;;;;;;21.40;64.83;101415.31;5086010;28;20036;-85
2023/10/11 10:21:02;;;;;;;0.15;0.15;;;;;;;21.62;64.77;101425.75;5085089;28;20029;-85
2023/10/11 10:23:30;;;;;;;2.08;1.35;;;;;;;21.72;64.09;101426.97;5088466;28;20612;-84
2023/10/11 10:28:53;;;;;;;0.15;0.15;;;;;;;21.95;63.51;101417.53;5065763;28;20839;-84
2023/10/11 10:31:21;;;;;;;2.42;1.75;;;;;;;22.01;63.09;101410.00;5047267;28;20030;-88
2023/10/11 10:36:43;;;;;;;5.95;1.23;;;;;;;21.95;62.64;101413.97;5088379;28;20402;-82
2023/10/11 10:42:12;;;;;;;2.22;0.55;;;;;;;22.13;61.98;101398.50;5116852;27;20147;-82
2023/10/11 10:44:49;;;;;;;0.20;0.20;;;;;;;22.26;62.11;101383.31;5087834;28;20032;-82
2023/10/11 10:47:21;;;;;;;0.63;0.63;;;;;;;22.43;62.03;101378.72;5081856;28;20135;-82
2023/10/11 10:49:51;;;;;;;0.10;0.10;;;;;;;22.28;61.72;101380.50;5072986;28;20394;-80
2023/10/11 10:54:56;;;;;;;0.10;0.10;;;;;;;22.36;61.71;101382.75;5076957;27;20138;-82
2023/10/11 10:57:24;;;;;;;0.10;0.10;;;;;;;22.40;62.00;101382.47;5068100;28;20131;-81
2023/10/11 10:59:50;;;;;;;0.00;0.00;;;;;;;22.47;62.02;101385.69;5068469;28;20029;-82
2023/10/11 11:02:19;;;;;;;0.52;0.52;;;;;;;22.52;62.13;101383.56;5062813;28;20465;-82
2023/10/11 11:04:46;;;;;;;0.50;0.50;;;;;;;22.59;61.50;101379.53;5063771;28;20025;-81
2023/10/11 11:07:28;;;;;;;0.08;0.08;;;;;;;22.75;61.28;101373.16;5067064;28;20029;-82
2023/10/11 11:09:55;;;;;;;0.10;0.10;;;;;;;22.65;61.42;101355.81;5065373;27;20021;-82
2023/10/11 11:12:28;;;;;;;0.57;0.47;;;;;;;22.48;61.49;101363.13;5069297;28;20389;-82
2023/10/11 11:14:58;;;;;;;0.85;0.85;;;;;;;22.48;61.36;101359.53;5066401;28;20594;-80
2023/10/11 11:17:26;;;;;;;0.43;0.43;;;;;;;22.26;61.84;101353.59;5061880;27;20554;-81
2023/10/11 11:23:00;;;;;;;0.10;0.10;;;;;;;22.23;62.09;101356.50;5104955;27;1327468;-83
2023/10/11 11:25:29;;;;;;;0.10;0.10;;;;;;;22.34;61.90;101363.94;5120362;28;20028;-83
2023/10/11 11:28:15;;;;;;;0.10;0.10;;;;;;;22.55;61.64;101367.16;5128160;27;20039;-82
2023/10/11 11:31:05;;;;;;;0.10;0.10;;;;;;;22.42;61.70;101360.81;5121897;28;20056;-83
2023/10/11 11:33:35;;;;;;;0.20;0.20;;;;;;;22.69;61.02;101351.94;5123914;27;20481;-83
2023/10/11 11:36:10;;;;;;;0.10;0.10;;;;;;;22.64;60.58;101349.50;5132191;28;20038;-83
2023/10/11 11:38:37;;;;;;;0.10;0.10;;;;;;;22.74;60.92;101371.41;5130502;28;20031;-84
2023/10/11 11:41:15;;;;;;;0.00;0.00;;;;;;;22.71;60.71;101363.53;5134302;27;20035;-83
2023/10/11 11:43:41;;;;;;;0.10;0.10;;;;;;;22.53;60.59;101362.81;5126817;27;20032;-83
2023/10/11 11:46:08;;;;;;;0.20;0.20;;;;;;;22.64;60.95;101351.34;5126143;28;20031;-83
2023/10/11 11:48:41;;;;;;;3.03;1.55;;;;;;;22.59;60.80;101344.44;5125389;27;20055;-83
2023/10/11 11:51:13;;;;;;;3.35;0.45;;;;;;;22.53;60.99;101341.22;5121615;27;20023;-82
2023/10/11 11:53:43;;;;;;;2.33;1.65;;;;;;;22.37;61.43;101352.06;5123461;28;20032;-84
2023/10/11 11:56:11;;;;;;;0.10;0.10;;;;;;;22.37;61.49;101360.16;5119623;28;20028;-83
2023/10/11 11:58:39;;;;;;;0.20;0.20;;;;;;;22.43;61.91;101346.31;5117427;28;20024;-83
2023/10/11 12:01:08;;;;;;;0.30;0.30;;;;;;;22.50;61.88;101353.09;5131566;28;20032;-82
2023/10/11 12:03:36;;;;;;;0.63;0.63;;;;;;;22.56;61.62;101346.44;5125727;27;20024;-82
2023/10/11 12:06:21;;;;;;;0.32;0.32;;;;;;;22.58;61.54;101348.09;5128377;28;20056;-82
2023/10/11 12:08:57;;;;;;;0.10;0.10;;;;;;;22.58;61.37;101342.69;5127666;28;20027;-80
2023/10/11 12:11:30;;;;;;;0.57;0.57;;;;;;;22.46;61.51;101362.34;5130524;27;20038;-83
2023/10/11 12:13:58;;;;;;;0.10;0.10;;;;;;;22.46;61.64;101356.94;5122514;28;20031;-82
2023/10/11 12:16:25;;;;;;;1.52;0.75;;;;;;;22.36;61.81;101353.91;5122698;27;20036;-81
2023/10/11 12:18:58;;;;;;;0.13;0.13;;;;;;;22.26;61.84;101361.72;5114609;28;20523;-80
2023/10/11 12:21:26;;;;;;;0.57;0.57;;;;;;;22.20;61.94;101348.59;5128680;28;20047;-81
2023/10/11 12:23:52;;;;;;;0.63;0.63;;;;;;;22.16;62.20;101360.53;5128092;28;20030;-81
2023/10/11 12:26:18;;;;;;;0.63;0.63;;;;;;;22.28;62.10;101358.91;5114483;28;20063;-81
2023/10/11 12:28:45;;;;;;;0.10;0.10;;;;;;;22.17;62.42;101351.50;5127364;28;20086;-81
2023/10/11 12:31:11;;;;;;;0.45;0.45;;;;;;;22.19;62.92;101349.53;5122563;27;20022;-82
2023/10/11 12:33:38;;;;;;;0.00;0.00;;;;;;;22.14;62.93;101360.63;5126477;27;20032;-79
2023/10/11 12:36:05;;;;;;;0.10;0.10;;;;;;;22.16;62.86;101343.47;5107464;28;20091;-81
2023/10/11 12:38:36;;;;;;;0.40;0.40;;;;;;;22.17;63.02;101348.78;5108418;28;20477;-80
2023/10/11 12:41:04;;;;;;;0.32;0.30;;;;;;;22.28;62.83;101340.00;5119582;28;20158;-81
2023/10/11 12:43:30;;;;;;;0.10;0.10;;;;;;;22.22;62.66;101325.06;5120262;28;20028;-83
2023/10/11 12:45:56;;;;;;;0.50;0.30;;;;;;;22.22;62.83;101329.59;5118989;28;20032;-83
2023/10/11 12:48:24;;;;;;;0.55;0.55;;;;;;;22.23;63.04;101323.25;5114738;28;20039;-82
2023/10/11 12:50:50;;;;;;;0.30;0.30;;;;;;;22.36;62.74;101326.06;5112145;28;20686;-83
2023/10/11 12:53:16;;;;;;;0.00;0.00;;;;;;;22.33;63.39;101323.53;5120069;28;20049;-83
2023/10/11 12:55:49;;;;;;;1.80;0.30;;;;;;;22.36;63.46;101323.38;5115880;28;20091;-82
2023/10/11 12:58:16;;;;;;;0.17;0.17;;;;;;;22.46;63.36;101321.84;5106232;28;20032;-83